createdAt,value
2019-04-25T00:03:38.380Z,13.93
2019-04-25T00:08:44.123Z,14.00
2019-04-25T00:13:49.566Z,14.17
2019-04-25T00:18:55.128Z,14.43
2019-04-25T00:24:07.976Z,14.10
2019-04-25T00:29:13.429Z,17.07
2019-04-25T00:34:18.610Z,14.63
2019-04-25T00:39:24.034Z,16.83
2019-04-25T00:44:29.632Z,15.67
2019-04-25T00:49:34.565Z,17.33
2019-04-25T00:54:41.343Z,14.20
2019-04-25T00:59:52.689Z,17.73
2019-04-25T01:04:58.414Z,15.60
2019-04-25T01:10:05.870Z,18.57
2019-04-25T01:15:11.806Z,15.30
2019-04-25T01:20:17.372Z,18.43
2019-04-25T01:25:23.406Z,15.53
2019-04-25T01:30:29.350Z,16.30
2019-04-25T01:35:43.100Z,15.60
2019-04-25T01:40:53.074Z,18.47
2019-04-25T01:45:59.308Z,15.83
2019-04-25T01:51:04.859Z,16.00
2019-04-25T01:56:10.644Z,15.53
2019-04-25T02:01:36.607Z,16.53
2019-04-25T02:06:43.082Z,20.50
2019-04-25T02:11:56.811Z,16.57
2019-04-25T02:17:04.045Z,19.17
2019-04-25T02:22:09.602Z,17.13
2019-04-25T02:27:14.802Z,22.73
2019-04-25T02:32:20.026Z,17.03
2019-04-25T02:37:25.802Z,20.33
2019-04-25T02:42:34.222Z,17.97
2019-04-25T02:47:40.083Z,21.13
2019-04-25T02:52:46.815Z,21.87
2019-04-25T02:57:51.769Z,21.00
2019-04-25T03:02:59.087Z,17.87
2019-04-25T03:08:08.264Z,20.87
2019-04-25T03:13:14.561Z,18.03
2019-04-25T03:18:20.386Z,20.70
2019-04-25T03:23:34.960Z,17.60
2019-04-25T03:28:39.879Z,21.53
2019-04-25T03:33:46.169Z,18.33
2019-04-25T03:38:51.906Z,21.37
2019-04-25T03:43:56.846Z,18.07
2019-04-25T03:49:03.646Z,21.37
2019-04-25T03:54:09.594Z,20.20
2019-04-25T03:59:16.110Z,20.40
2019-04-25T04:04:23.727Z,22.23
2019-04-25T04:09:29.276Z,19.73
2019-04-25T04:14:34.631Z,21.13
2019-04-25T04:19:41.421Z,20.93
2019-04-25T04:24:48.775Z,17.53
2019-04-25T04:29:54.353Z,20.53
2019-04-25T04:35:00.019Z,21.27
2019-04-25T04:40:07.931Z,17.80
2019-04-25T04:45:14.268Z,21.37
2019-04-25T04:50:20.164Z,17.57
2019-04-25T04:55:25.390Z,21.43
2019-04-25T05:00:30.994Z,17.87
2019-04-25T05:05:40.748Z,20.60
2019-04-25T05:10:45.997Z,17.40
2019-04-25T05:15:51.250Z,21.37
2019-04-25T05:20:56.502Z,17.33
2019-04-25T05:26:01.754Z,19.83
2019-04-25T05:31:11.113Z,20.30
2019-04-25T05:36:17.575Z,28.13
2019-04-25T05:41:25.317Z,16.20
2019-04-25T05:46:30.769Z,16.43
2019-04-25T05:51:36.158Z,15.37
2019-04-25T05:56:41.729Z,14.63
2019-04-25T06:01:46.899Z,14.70
2019-04-25T06:06:53.073Z,14.77
2019-04-25T06:12:18.483Z,14.40
2019-04-25T06:17:44.203Z,13.87
2019-04-25T06:23:00.246Z,13.57
2019-04-25T06:28:07.566Z,13.53
2019-04-25T06:33:13.395Z,14.90
2019-04-25T06:38:18.723Z,13.60
2019-04-25T06:43:24.543Z,14.53
2019-04-25T06:48:35.289Z,13.13
2019-04-25T06:53:40.844Z,14.13
2019-04-25T06:58:46.123Z,12.57
2019-04-25T07:03:51.803Z,12.60
2019-04-25T07:08:57.315Z,12.73
2019-04-25T07:14:04.170Z,12.50
2019-04-25T07:19:09.843Z,12.40
2019-04-25T07:24:17.414Z,11.27
2019-04-25T07:29:35.768Z,11.97
2019-04-25T07:34:41.763Z,10.67
2019-04-25T07:39:47.076Z,10.40
2019-04-25T07:44:54.927Z,10.60
2019-04-25T07:49:59.155Z,10.37
2019-04-25T07:55:05.679Z,8.97
2019-04-25T08:00:16.167Z,10.20
2019-04-25T08:05:21.844Z,7.97
2019-04-25T08:10:30.025Z,9.77
2019-04-25T08:15:37.046Z,8.90
2019-04-25T08:20:43.421Z,7.37
2019-04-25T08:25:48.884Z,8.87
2019-04-25T08:30:55.037Z,9.00
2019-04-25T08:36:08.676Z,9.13
2019-04-25T08:41:07.837Z,8.80
2019-04-25T08:46:13.954Z,8.07
2019-04-25T08:51:19.884Z,8.13
2019-04-25T08:56:26.804Z,7.27
2019-04-25T09:01:37.893Z,8.30
2019-04-25T09:06:44.253Z,8.03
2019-04-25T09:11:50.123Z,6.97
2019-04-25T09:16:55.973Z,8.23
2019-04-25T09:22:03.206Z,7.20
2019-04-25T09:27:08.885Z,7.17
2019-04-25T09:32:14.284Z,6.53
2019-04-25T09:37:20.004Z,8.17
2019-04-25T09:42:25.564Z,6.97
2019-04-25T09:47:31.204Z,6.63
2019-04-25T09:52:37.724Z,7.77
2019-04-25T09:57:50.604Z,7.07
2019-04-25T10:02:55.725Z,6.73
2019-04-25T10:08:01.155Z,6.87
2019-04-25T10:13:06.843Z,7.27
2019-04-25T10:18:14.231Z,7.27
2019-04-25T10:23:19.523Z,7.47
2019-04-25T10:28:26.195Z,7.50
2019-04-25T10:33:31.652Z,6.57
2019-04-25T10:38:37.353Z,6.90
2019-04-25T10:43:43.891Z,6.83
2019-04-25T10:48:49.684Z,8.00
2019-04-25T10:53:55.176Z,8.00
2019-04-25T10:59:00.803Z,8.07
2019-04-25T11:04:14.245Z,7.60
2019-04-25T11:09:24.158Z,6.80
2019-04-25T11:14:31.607Z,7.70
2019-04-25T11:19:38.004Z,8.60
2019-04-25T11:24:43.801Z,7.20
2019-04-25T11:29:49.605Z,7.00
2019-04-25T11:34:55.404Z,7.30
2019-04-25T11:40:05.164Z,6.83
2019-04-25T11:45:11.516Z,7.10
2019-04-25T11:50:16.726Z,6.63
2019-04-25T11:55:23.777Z,7.10
2019-04-25T12:00:30.964Z,6.50
2019-04-25T12:05:36.524Z,7.43
2019-04-25T12:10:42.888Z,6.37
2019-04-25T12:15:49.843Z,5.93
2019-04-25T12:20:57.899Z,6.77
2019-04-25T12:26:03.760Z,6.00
2019-04-25T12:31:08.932Z,6.33
2019-04-25T12:36:14.605Z,6.53
2019-04-25T12:41:20.364Z,6.80
2019-04-25T12:46:36.683Z,6.17
2019-04-25T12:51:42.318Z,7.27
2019-04-25T12:56:47.530Z,7.10
2019-04-25T13:01:54.530Z,7.13
2019-04-25T13:06:59.836Z,7.30
2019-04-25T13:12:06.407Z,6.40
2019-04-25T13:17:13.590Z,7.23
2019-04-25T13:22:19.214Z,6.42
2019-04-25T13:27:42.245Z,6.17
2019-04-25T13:33:06.457Z,6.40
2019-04-25T13:38:12.123Z,6.57
2019-04-25T13:43:17.605Z,6.53
2019-04-25T13:48:25.545Z,5.80
2019-04-25T13:53:30.164Z,6.60
2019-04-25T13:58:35.724Z,5.43
2019-04-25T14:03:41.164Z,7.05
2019-04-25T14:08:46.837Z,7.00
2019-04-25T14:13:52.523Z,5.90
2019-04-25T14:19:15.885Z,6.17
2019-04-25T14:24:22.949Z,6.33
2019-04-25T14:29:28.676Z,5.97
2019-04-25T14:34:34.127Z,7.15
2019-04-25T14:39:39.804Z,6.50
2019-04-25T14:44:45.047Z,16.80
2019-04-25T14:49:50.484Z,5.67
2019-04-25T14:55:15.564Z,6.03
2019-04-25T15:00:23.947Z,6.75
2019-04-25T15:05:29.445Z,6.27
2019-04-25T15:10:36.204Z,6.10
2019-04-25T15:15:41.844Z,6.97
2019-04-25T15:20:47.262Z,6.62
2019-04-25T15:25:52.746Z,6.80
2019-04-25T15:30:57.983Z,7.47
2019-04-25T15:36:11.099Z,6.62
2019-04-25T15:41:18.371Z,6.92
2019-04-25T15:46:26.070Z,7.03
2019-04-25T15:51:32.690Z,6.47
2019-04-25T15:56:38.621Z,6.50
2019-04-25T16:01:43.890Z,6.50
2019-04-25T16:06:49.139Z,7.12
2019-04-25T16:11:54.618Z,6.85
2019-04-25T16:17:00.196Z,7.10
2019-04-25T16:22:05.723Z,6.87
2019-04-25T16:27:11.755Z,7.20
2019-04-25T16:32:20.886Z,6.37
2019-04-25T16:37:26.083Z,14.17
2019-04-25T16:42:31.723Z,8.73
2019-04-25T16:47:37.919Z,9.57
2019-04-25T16:52:43.466Z,10.63
2019-04-25T16:57:49.138Z,9.30
2019-04-25T17:02:54.286Z,9.77
2019-04-25T17:07:59.813Z,10.83
2019-04-25T17:13:05.296Z,9.30
2019-04-25T17:18:12.166Z,8.47
2019-04-25T17:23:17.553Z,9.70
2019-04-25T17:28:23.087Z,12.17
2019-04-25T17:33:46.411Z,10.50
2019-04-25T17:38:53.529Z,9.80
2019-04-25T17:44:01.077Z,9.23
2019-04-25T17:49:06.396Z,9.77
2019-04-25T17:54:11.773Z,10.83
2019-04-25T17:59:17.019Z,12.23
2019-04-25T18:04:22.717Z,16.03
2019-04-25T18:09:28.298Z,15.43
2019-04-25T18:14:35.165Z,14.77
2019-04-25T18:19:42.602Z,14.07
2019-04-25T18:30:32.903Z,11.63
2019-04-25T18:35:41.686Z,11.37
2019-04-25T18:40:52.438Z,10.73
2019-04-25T18:45:59.677Z,12.10
2019-04-25T18:51:07.237Z,12.30
2019-04-25T18:56:29.398Z,14.43
2019-04-25T19:01:54.221Z,19.30
2019-04-25T19:07:00.081Z,19.93
2019-04-25T19:12:05.526Z,19.67
2019-04-25T19:17:11.819Z,18.07
2019-04-25T19:22:17.388Z,20.10
2019-04-25T19:27:24.029Z,24.43
2019-04-25T19:32:29.873Z,20.43
2019-04-25T19:37:38.343Z,27.90
2019-04-25T19:48:56.022Z,29.73
2019-04-25T19:54:15.103Z,28.03
2019-04-25T19:59:38.717Z,23.53
2019-04-25T20:04:59.398Z,25.27
2019-04-25T20:10:28.120Z,22.13
2019-04-25T20:15:33.584Z,20.10
2019-04-25T20:20:39.574Z,22.77
2019-04-25T20:25:45.381Z,25.60
2019-04-25T20:30:51.846Z,25.23
2019-04-25T20:42:10.102Z,24.43
2019-04-25T20:47:55.782Z,26.97
2019-04-25T20:53:24.542Z,25.73
2019-04-25T20:58:47.705Z,26.20
2019-04-25T21:04:28.621Z,28.43
2019-04-25T21:09:34.158Z,32.73
2019-04-25T21:20:19.867Z,36.77
2019-04-25T21:25:25.044Z,31.27
2019-04-25T21:30:30.410Z,29.50
2019-04-25T21:35:35.546Z,31.40
2019-04-25T21:40:42.893Z,35.90
2019-04-25T21:45:48.849Z,35.43
2019-04-25T21:50:55.033Z,37.57
2019-04-25T21:56:00.656Z,36.87
2019-04-25T22:01:09.515Z,46.00
2019-04-25T22:06:17.743Z,37.07
2019-04-25T22:11:22.251Z,31.23
2019-04-25T22:16:27.646Z,39.00
2019-04-25T22:21:38.097Z,35.60
2019-04-25T22:26:40.202Z,41.27
2019-04-25T22:31:53.433Z,39.47
2019-04-25T22:36:59.913Z,39.63
2019-04-25T22:42:05.829Z,41.63
2019-04-25T22:47:12.540Z,44.87
2019-04-25T22:52:18.075Z,46.07
2019-04-25T22:57:26.167Z,50.03
2019-04-25T23:02:33.191Z,42.40
2019-04-25T23:07:38.483Z,47.77
2019-04-25T23:12:44.206Z,42.80
2019-04-25T23:17:49.183Z,49.73
2019-04-25T23:22:54.853Z,57.73
2019-04-25T23:28:05.337Z,49.53
2019-04-25T23:33:11.107Z,40.50
2019-04-25T23:38:16.546Z,45.67
2019-04-25T23:43:21.900Z,43.50
2019-04-25T23:48:27.196Z,44.70
2019-04-25T23:53:32.525Z,46.50
2019-04-25T23:58:37.874Z,41.47
